Aviation Digital Data Service (ADDS)

Output produced by METARs form (0510 UTC 24 May 2015)
found at http://aviationweather.gov/adds/metars/
 
KLCH 240453Z AUTO 15005KT 10SM CLR 24/23 A3005 RMK AO2 SLP184 T02390228